sensor_id;sensor_type;location;lat;lon;timestamp;pressure;altitude;pressure_sealevel;temperature
4421;BMP180;11824;51.178;13.546;2023-05-14T00:01:24;100665.00;;;13.40
4421;BMP180;11824;51.178;13.546;2023-05-14T00:03:51;100652.00;;;13.40
4421;BMP180;11824;51.178;13.546;2023-05-14T00:06:19;100655.00;;;13.30
4421;BMP180;11824;51.178;13.546;2023-05-14T00:08:46;100651.00;;;13.30
4421;BMP180;11824;51.178;13.546;2023-05-14T00:11:14;100640.00;;;13.20
4421;BMP180;11824;51.178;13.546;2023-05-14T00:13:42;100645.00;;;13.20
4421;BMP180;11824;51.178;13.546;2023-05-14T00:16:10;100632.00;;;13.20
4421;BMP180;11824;51.178;13.546;2023-05-14T00:18:37;100636.00;;;13.20
4421;BMP180;11824;51.178;13.546;2023-05-14T00:21:05;100631.00;;;13.20
4421;BMP180;11824;51.178;13.546;2023-05-14T00:23:32;100637.00;;;13.10
4421;BMP180;11824;51.178;13.546;2023-05-14T00:26:00;100632.00;;;13.10
4421;BMP180;11824;51.178;13.546;2023-05-14T00:28:28;100633.00;;;13.10
4421;BMP180;11824;51.178;13.546;2023-05-14T00:30:55;100626.00;;;13.10
4421;BMP180;11824;51.178;13.546;2023-05-14T00:33:23;100626.00;;;13.00
4421;BMP180;11824;51.178;13.546;2023-05-14T00:35:51;100632.00;;;13.00
4421;BMP180;11824;51.178;13.546;2023-05-14T00:38:18;100625.00;;;13.00
4421;BMP180;11824;51.178;13.546;2023-05-14T00:40:46;100618.00;;;12.90
4421;BMP180;11824;51.178;13.546;2023-05-14T00:43:18;100614.00;;;12.90
4421;BMP180;11824;51.178;13.546;2023-05-14T00:45:47;100619.00;;;12.90
4421;BMP180;11824;51.178;13.546;2023-05-14T00:48:16;100620.00;;;12.80
4421;BMP180;11824;51.178;13.546;2023-05-14T00:50:43;100613.00;;;12.80
4421;BMP180;11824;51.178;13.546;2023-05-14T00:53:11;100615.00;;;12.80
4421;BMP180;11824;51.178;13.546;2023-05-14T00:55:41;100616.00;;;12.80
4421;BMP180;11824;51.178;13.546;2023-05-14T00:58:10;100612.00;;;12.80
4421;BMP180;11824;51.178;13.546;2023-05-14T01:00:38;100617.00;;;12.80
4421;BMP180;11824;51.178;13.546;2023-05-14T01:03:07;100609.00;;;12.80
4421;BMP180;11824;51.178;13.546;2023-05-14T01:05:41;100606.00;;;12.80
4421;BMP180;11824;51.178;13.546;2023-05-14T01:08:20;100608.00;;;12.80
4421;BMP180;11824;51.178;13.546;2023-05-14T01:10:55;100594.00;;;12.80
4421;BMP180;11824;51.178;13.546;2023-05-14T01:13:28;100594.00;;;12.80
4421;BMP180;11824;51.178;13.546;2023-05-14T01:15:59;100605.00;;;12.80
4421;BMP180;11824;51.178;13.546;2023-05-14T01:18:28;100595.00;;;12.70
4421;BMP180;11824;51.178;13.546;2023-05-14T01:20:56;100592.00;;;12.70
4421;BMP180;11824;51.178;13.546;2023-05-14T01:23:24;100597.00;;;12.70
4421;BMP180;11824;51.178;13.546;2023-05-14T01:25:51;100593.00;;;12.60
4421;BMP180;11824;51.178;13.546;2023-05-14T01:28:22;100601.00;;;12.60
4421;BMP180;11824;51.178;13.546;2023-05-14T01:30:55;100583.00;;;12.50
4421;BMP180;11824;51.178;13.546;2023-05-14T01:33:26;100598.00;;;12.50
4421;BMP180;11824;51.178;13.546;2023-05-14T01:35:55;100600.00;;;12.30
4421;BMP180;11824;51.178;13.546;2023-05-14T01:38:25;100588.00;;;12.30
4421;BMP180;11824;51.178;13.546;2023-05-14T01:40:56;100594.00;;;12.20
4421;BMP180;11824;51.178;13.546;2023-05-14T01:43:25;100583.00;;;12.10
4421;BMP180;11824;51.178;13.546;2023-05-14T01:45:53;100587.00;;;12.00
4421;BMP180;11824;51.178;13.546;2023-05-14T01:48:21;100596.00;;;11.90
4421;BMP180;11824;51.178;13.546;2023-05-14T01:50:48;100582.00;;;11.80
4421;BMP180;11824;51.178;13.546;2023-05-14T01:53:16;100591.00;;;11.70
4421;BMP180;11824;51.178;13.546;2023-05-14T01:55:44;100596.00;;;11.60
4421;BMP180;11824;51.178;13.546;2023-05-14T01:58:11;100591.00;;;11.60
4421;BMP180;11824;51.178;13.546;2023-05-14T02:00:39;100590.00;;;11.50
4421;BMP180;11824;51.178;13.546;2023-05-14T02:03:06;100592.00;;;11.50
4421;BMP180;11824;51.178;13.546;2023-05-14T02:05:34;100587.00;;;11.50
4421;BMP180;11824;51.178;13.546;2023-05-14T02:08:01;100593.00;;;11.50
4421;BMP180;11824;51.178;13.546;2023-05-14T02:10:29;100594.00;;;11.50
4421;BMP180;11824;51.178;13.546;2023-05-14T02:12:57;100598.00;;;11.50
4421;BMP180;11824;51.178;13.546;2023-05-14T02:15:24;100582.00;;;11.50
4421;BMP180;11824;51.178;13.546;2023-05-14T02:17:52;100581.00;;;11.60
4421;BMP180;11824;51.178;13.546;2023-05-14T02:20:19;100581.00;;;11.60
4421;BMP180;11824;51.178;13.546;2023-05-14T02:22:47;100580.00;;;11.60
4421;BMP180;11824;51.178;13.546;2023-05-14T02:25:14;100574.00;;;11.60
4421;BMP180;11824;51.178;13.546;2023-05-14T02:27:42;100582.00;;;11.60
4421;BMP180;11824;51.178;13.546;2023-05-14T02:30:11;100577.00;;;11.60
4421;BMP180;11824;51.178;13.546;2023-05-14T02:32:39;100577.00;;;11.60
4421;BMP180;11824;51.178;13.546;2023-05-14T02:35:07;100577.00;;;11.60
4421;BMP180;11824;51.178;13.546;2023-05-14T02:37:35;100583.00;;;11.60
4421;BMP180;11824;51.178;13.546;2023-05-14T02:40:02;100575.00;;;11.60
4421;BMP180;11824;51.178;13.546;2023-05-14T02:42:30;100578.00;;;11.60
4421;BMP180;11824;51.178;13.546;2023-05-14T02:44:57;100577.00;;;11.60
4421;BMP180;11824;51.178;13.546;2023-05-14T02:47:26;100573.00;;;11.60
4421;BMP180;11824;51.178;13.546;2023-05-14T02:49:53;100576.00;;;11.60
4421;BMP180;11824;51.178;13.546;2023-05-14T02:52:20;100571.00;;;11.60
4421;BMP180;11824;51.178;13.546;2023-05-14T02:54:48;100574.00;;;11.50
4421;BMP180;11824;51.178;13.546;2023-05-14T02:57:15;100566.00;;;11.50
4421;BMP180;11824;51.178;13.546;2023-05-14T02:59:43;100573.00;;;11.50
4421;BMP180;11824;51.178;13.546;2023-05-14T03:02:10;100576.00;;;11.40
4421;BMP180;11824;51.178;13.546;2023-05-14T03:04:39;100570.00;;;11.40
4421;BMP180;11824;51.178;13.546;2023-05-14T03:07:06;100574.00;;;11.40
4421;BMP180;11824;51.178;13.546;2023-05-14T03:09:33;100577.00;;;11.30
4421;BMP180;11824;51.178;13.546;2023-05-14T03:12:05;100567.00;;;11.30
4421;BMP180;11824;51.178;13.546;2023-05-14T03:14:33;100573.00;;;11.30
4421;BMP180;11824;51.178;13.546;2023-05-14T03:17:00;100571.00;;;11.30
4421;BMP180;11824;51.178;13.546;2023-05-14T03:19:28;100568.00;;;11.30
4421;BMP180;11824;51.178;13.546;2023-05-14T03:21:56;100561.00;;;11.30
4421;BMP180;11824;51.178;13.546;2023-05-14T03:24:24;100566.00;;;11.20
4421;BMP180;11824;51.178;13.546;2023-05-14T03:26:51;100566.00;;;11.20
4421;BMP180;11824;51.178;13.546;2023-05-14T03:29:19;100562.00;;;11.10
4421;BMP180;11824;51.178;13.546;2023-05-14T03:31:46;100555.00;;;11.00
4421;BMP180;11824;51.178;13.546;2023-05-14T03:34:14;100562.00;;;11.00
4421;BMP180;11824;51.178;13.546;2023-05-14T03:36:41;100558.00;;;10.90
4421;BMP180;11824;51.178;13.546;2023-05-14T03:39:09;100563.00;;;10.90
4421;BMP180;11824;51.178;13.546;2023-05-14T03:41:36;100548.00;;;10.90
4421;BMP180;11824;51.178;13.546;2023-05-14T03:44:05;100553.00;;;10.90
4421;BMP180;11824;51.178;13.546;2023-05-14T03:46:32;100551.00;;;10.80
4421;BMP180;11824;51.178;13.546;2023-05-14T03:48:59;100556.00;;;10.80
4421;BMP180;11824;51.178;13.546;2023-05-14T03:51:27;100550.00;;;10.80
4421;BMP180;11824;51.178;13.546;2023-05-14T03:53:54;100539.00;;;10.80
4421;BMP180;11824;51.178;13.546;2023-05-14T03:56:24;100536.00;;;10.80
4421;BMP180;11824;51.178;13.546;2023-05-14T03:58:52;100531.00;;;10.80
4421;BMP180;11824;51.178;13.546;2023-05-14T04:01:19;100541.00;;;10.80
4421;BMP180;11824;51.178;13.546;2023-05-14T04:03:47;100533.00;;;10.90
4421;BMP180;11824;51.178;13.546;2023-05-14T04:06:14;100536.00;;;10.90
4421;BMP180;11824;51.178;13.546;2023-05-14T04:08:42;100527.00;;;11.00
4421;BMP180;11824;51.178;13.546;2023-05-14T04:11:09;100520.00;;;11.10
4421;BMP180;11824;51.178;13.546;2023-05-14T04:13:37;100525.00;;;11.30
4421;BMP180;11824;51.178;13.546;2023-05-14T04:16:05;100529.00;;;11.30
4421;BMP180;11824;51.178;13.546;2023-05-14T04:18:32;100523.00;;;11.40
4421;BMP180;11824;51.178;13.546;2023-05-14T04:21:01;100531.00;;;11.50
4421;BMP180;11824;51.178;13.546;2023-05-14T04:23:29;100532.00;;;11.70
4421;BMP180;11824;51.178;13.546;2023-05-14T04:25:57;100528.00;;;11.80
4421;BMP180;11824;51.178;13.546;2023-05-14T04:28:24;100524.00;;;12.00
4421;BMP180;11824;51.178;13.546;2023-05-14T04:30:52;100526.00;;;12.30
4421;BMP180;11824;51.178;13.546;2023-05-14T04:33:20;100521.00;;;12.60
4421;BMP180;11824;51.178;13.546;2023-05-14T04:35:47;100525.00;;;12.80
4421;BMP180;11824;51.178;13.546;2023-05-14T04:38:14;100535.00;;;13.20
4421;BMP180;11824;51.178;13.546;2023-05-14T04:40:42;100531.00;;;13.80
4421;BMP180;11824;51.178;13.546;2023-05-14T04:43:09;100526.00;;;14.30
4421;BMP180;11824;51.178;13.546;2023-05-14T04:45:36;100533.00;;;14.80
4421;BMP180;11824;51.178;13.546;2023-05-14T04:48:05;100532.00;;;15.30
4421;BMP180;11824;51.178;13.546;2023-05-14T04:50:33;100532.00;;;15.90
4421;BMP180;11824;51.178;13.546;2023-05-14T04:53:01;100531.00;;;16.40
4421;BMP180;11824;51.178;13.546;2023-05-14T04:55:29;100529.00;;;16.90
4421;BMP180;11824;51.178;13.546;2023-05-14T04:57:56;100536.00;;;17.50
4421;BMP180;11824;51.178;13.546;2023-05-14T05:00:23;100537.00;;;18.00
4421;BMP180;11824;51.178;13.546;2023-05-14T05:02:51;100544.00;;;18.50
4421;BMP180;11824;51.178;13.546;2023-05-14T05:05:20;100545.00;;;19.10
4421;BMP180;11824;51.178;13.546;2023-05-14T05:07:47;100547.00;;;19.60
4421;BMP180;11824;51.178;13.546;2023-05-14T05:10:15;100538.00;;;20.10
4421;BMP180;11824;51.178;13.546;2023-05-14T05:12:42;100542.00;;;20.60
4421;BMP180;11824;51.178;13.546;2023-05-14T05:15:10;100548.00;;;21.00
4421;BMP180;11824;51.178;13.546;2023-05-14T05:17:37;100545.00;;;21.50
4421;BMP180;11824;51.178;13.546;2023-05-14T05:20:08;100547.00;;;21.90
4421;BMP180;11824;51.178;13.546;2023-05-14T05:22:37;100544.00;;;22.30
4421;BMP180;11824;51.178;13.546;2023-05-14T05:25:05;100546.00;;;22.60
4421;BMP180;11824;51.178;13.546;2023-05-14T05:27:36;100538.00;;;22.90
4421;BMP180;11824;51.178;13.546;2023-05-14T05:30:05;100547.00;;;23.30
4421;BMP180;11824;51.178;13.546;2023-05-14T05:32:32;100539.00;;;23.50
4421;BMP180;11824;51.178;13.546;2023-05-14T05:35:00;100544.00;;;23.80
4421;BMP180;11824;51.178;13.546;2023-05-14T05:37:27;100545.00;;;24.10
4421;BMP180;11824;51.178;13.546;2023-05-14T05:39:59;100542.00;;;24.30
4421;BMP180;11824;51.178;13.546;2023-05-14T05:42:28;100538.00;;;24.50
4421;BMP180;11824;51.178;13.546;2023-05-14T05:44:57;100550.00;;;24.80
4421;BMP180;11824;51.178;13.546;2023-05-14T05:47:35;100539.00;;;24.90
4421;BMP180;11824;51.178;13.546;2023-05-14T05:50:03;100538.00;;;25.00
4421;BMP180;11824;51.178;13.546;2023-05-14T05:52:30;100543.00;;;25.20
4421;BMP180;11824;51.178;13.546;2023-05-14T05:54:58;100545.00;;;25.50
4421;BMP180;11824;51.178;13.546;2023-05-14T05:57:26;100540.00;;;25.70
4421;BMP180;11824;51.178;13.546;2023-05-14T05:59:53;100542.00;;;25.90
4421;BMP180;11824;51.178;13.546;2023-05-14T06:02:21;100543.00;;;26.10
4421;BMP180;11824;51.178;13.546;2023-05-14T06:04:48;100544.00;;;26.20
4421;BMP180;11824;51.178;13.546;2023-05-14T06:07:15;100544.00;;;26.40
4421;BMP180;11824;51.178;13.546;2023-05-14T06:09:43;100542.00;;;26.60
4421;BMP180;11824;51.178;13.546;2023-05-14T06:12:11;100550.00;;;26.70
4421;BMP180;11824;51.178;13.546;2023-05-14T06:14:38;100551.00;;;26.90
4421;BMP180;11824;51.178;13.546;2023-05-14T06:17:05;100549.00;;;27.00
4421;BMP180;11824;51.178;13.546;2023-05-14T06:19:33;100549.00;;;27.10
4421;BMP180;11824;51.178;13.546;2023-05-14T06:22:00;100541.00;;;27.20
4421;BMP180;11824;51.178;13.546;2023-05-14T06:24:28;100537.00;;;27.40
4421;BMP180;11824;51.178;13.546;2023-05-14T06:26:55;100536.00;;;27.40
4421;BMP180;11824;51.178;13.546;2023-05-14T06:29:24;100535.00;;;27.40
4421;BMP180;11824;51.178;13.546;2023-05-14T06:31:51;100539.00;;;27.40
4421;BMP180;11824;51.178;13.546;2023-05-14T06:34:19;100535.00;;;27.30
4421;BMP180;11824;51.178;13.546;2023-05-14T06:36:47;100531.00;;;27.30
4421;BMP180;11824;51.178;13.546;2023-05-14T06:39:14;100531.00;;;27.20
4421;BMP180;11824;51.178;13.546;2023-05-14T06:41:45;100529.00;;;27.10
4421;BMP180;11824;51.178;13.546;2023-05-14T06:44:43;100530.00;;;27.00
4421;BMP180;11824;51.178;13.546;2023-05-14T06:47:10;100531.00;;;26.90
4421;BMP180;11824;51.178;13.546;2023-05-14T06:49:41;100533.00;;;26.80
4421;BMP180;11824;51.178;13.546;2023-05-14T06:52:08;100533.00;;;26.70
4421;BMP180;11824;51.178;13.546;2023-05-14T06:54:36;100533.00;;;26.50
4421;BMP180;11824;51.178;13.546;2023-05-14T06:57:04;100525.00;;;26.30
4421;BMP180;11824;51.178;13.546;2023-05-14T06:59:32;100527.00;;;26.00
4421;BMP180;11824;51.178;13.546;2023-05-14T07:02:00;100518.00;;;25.70
4421;BMP180;11824;51.178;13.546;2023-05-14T07:04:29;100515.00;;;25.20
4421;BMP180;11824;51.178;13.546;2023-05-14T07:06:57;100513.00;;;24.70
4421;BMP180;11824;51.178;13.546;2023-05-14T07:09:24;100501.00;;;24.10
4421;BMP180;11824;51.178;13.546;2023-05-14T07:11:52;100498.00;;;23.60
4421;BMP180;11824;51.178;13.546;2023-05-14T07:14:19;100497.00;;;23.10
4421;BMP180;11824;51.178;13.546;2023-05-14T07:16:47;100505.00;;;22.70
4421;BMP180;11824;51.178;13.546;2023-05-14T07:19:15;100497.00;;;22.30
4421;BMP180;11824;51.178;13.546;2023-05-14T07:21:43;100490.00;;;21.90
4421;BMP180;11824;51.178;13.546;2023-05-14T07:24:10;100485.00;;;21.50
4421;BMP180;11824;51.178;13.546;2023-05-14T07:26:37;100485.00;;;21.20
4421;BMP180;11824;51.178;13.546;2023-05-14T07:29:05;100477.00;;;21.00
4421;BMP180;11824;51.178;13.546;2023-05-14T07:31:33;100479.00;;;20.80
4421;BMP180;11824;51.178;13.546;2023-05-14T07:34:00;100483.00;;;20.70
4421;BMP180;11824;51.178;13.546;2023-05-14T07:36:28;100479.00;;;20.50
4421;BMP180;11824;51.178;13.546;2023-05-14T07:38:56;100475.00;;;20.40
4421;BMP180;11824;51.178;13.546;2023-05-14T07:41:23;100474.00;;;20.40
4421;BMP180;11824;51.178;13.546;2023-05-14T07:43:51;100465.00;;;20.30
4421;BMP180;11824;51.178;13.546;2023-05-14T07:46:18;100460.00;;;20.20
4421;BMP180;11824;51.178;13.546;2023-05-14T07:48:46;100461.00;;;20.20
4421;BMP180;11824;51.178;13.546;2023-05-14T07:51:13;100464.00;;;20.10
4421;BMP180;11824;51.178;13.546;2023-05-14T07:53:41;100454.00;;;20.10
4421;BMP180;11824;51.178;13.546;2023-05-14T07:56:08;100460.00;;;20.10
4421;BMP180;11824;51.178;13.546;2023-05-14T07:58:36;100455.00;;;20.10
4421;BMP180;11824;51.178;13.546;2023-05-14T08:01:03;100458.00;;;20.20
4421;BMP180;11824;51.178;13.546;2023-05-14T08:03:32;100453.00;;;20.20
4421;BMP180;11824;51.178;13.546;2023-05-14T08:06:00;100456.00;;;20.40
4421;BMP180;11824;51.178;13.546;2023-05-14T08:08:27;100451.00;;;20.50
4421;BMP180;11824;51.178;13.546;2023-05-14T08:10:55;100450.00;;;20.60
4421;BMP180;11824;51.178;13.546;2023-05-14T08:13:23;100442.00;;;20.70
4421;BMP180;11824;51.178;13.546;2023-05-14T08:15:52;100450.00;;;20.70
4421;BMP180;11824;51.178;13.546;2023-05-14T08:18:19;100442.00;;;20.70
4421;BMP180;11824;51.178;13.546;2023-05-14T08:20:47;100434.00;;;20.80
4421;BMP180;11824;51.178;13.546;2023-05-14T08:23:17;100439.00;;;20.80
4421;BMP180;11824;51.178;13.546;2023-05-14T08:25:44;100437.00;;;20.80
4421;BMP180;11824;51.178;13.546;2023-05-14T08:28:12;100431.00;;;20.80
4421;BMP180;11824;51.178;13.546;2023-05-14T08:30:40;100428.00;;;20.90
4421;BMP180;11824;51.178;13.546;2023-05-14T08:33:07;100422.00;;;21.00
4421;BMP180;11824;51.178;13.546;2023-05-14T08:35:35;100429.00;;;21.10
4421;BMP180;11824;51.178;13.546;2023-05-14T08:38:02;100427.00;;;21.10
4421;BMP180;11824;51.178;13.546;2023-05-14T08:40:29;100424.00;;;21.20
4421;BMP180;11824;51.178;13.546;2023-05-14T08:42:57;100433.00;;;21.20
4421;BMP180;11824;51.178;13.546;2023-05-14T08:45:30;100432.00;;;21.20
4421;BMP180;11824;51.178;13.546;2023-05-14T08:48:00;100441.00;;;21.20
4421;BMP180;11824;51.178;13.546;2023-05-14T08:50:31;100434.00;;;21.10
4421;BMP180;11824;51.178;13.546;2023-05-14T08:52:58;100429.00;;;21.00
4421;BMP180;11824;51.178;13.546;2023-05-14T08:55:26;100420.00;;;20.80
4421;BMP180;11824;51.178;13.546;2023-05-14T08:57:54;100427.00;;;20.70
4421;BMP180;11824;51.178;13.546;2023-05-14T09:00:22;100425.00;;;20.70
4421;BMP180;11824;51.178;13.546;2023-05-14T09:02:52;100429.00;;;20.70
4421;BMP180;11824;51.178;13.546;2023-05-14T09:05:19;100428.00;;;20.60
4421;BMP180;11824;51.178;13.546;2023-05-14T09:07:47;100425.00;;;20.60
4421;BMP180;11824;51.178;13.546;2023-05-14T09:10:15;100423.00;;;20.50
4421;BMP180;11824;51.178;13.546;2023-05-14T09:12:43;100426.00;;;20.40
4421;BMP180;11824;51.178;13.546;2023-05-14T09:15:10;100414.00;;;20.30
4421;BMP180;11824;51.178;13.546;2023-05-14T09:17:38;100408.00;;;20.20
4421;BMP180;11824;51.178;13.546;2023-05-14T09:20:07;100411.00;;;20.20
4421;BMP180;11824;51.178;13.546;2023-05-14T09:22:35;100410.00;;;20.10
4421;BMP180;11824;51.178;13.546;2023-05-14T09:25:04;100418.00;;;20.20
4421;BMP180;11824;51.178;13.546;2023-05-14T09:27:32;100411.00;;;20.20
4421;BMP180;11824;51.178;13.546;2023-05-14T09:30:08;100413.00;;;20.20
4421;BMP180;11824;51.178;13.546;2023-05-14T09:32:36;100405.00;;;20.20
4421;BMP180;11824;51.178;13.546;2023-05-14T09:35:16;100405.00;;;20.20
4421;BMP180;11824;51.178;13.546;2023-05-14T09:37:45;100399.00;;;20.20
4421;BMP180;11824;51.178;13.546;2023-05-14T09:40:14;100400.00;;;20.30
4421;BMP180;11824;51.178;13.546;2023-05-14T09:42:41;100393.00;;;20.30
4421;BMP180;11824;51.178;13.546;2023-05-14T09:45:10;100390.00;;;20.40
4421;BMP180;11824;51.178;13.546;2023-05-14T09:47:38;100391.00;;;20.40
4421;BMP180;11824;51.178;13.546;2023-05-14T09:50:06;100393.00;;;20.50
4421;BMP180;11824;51.178;13.546;2023-05-14T09:52:35;100393.00;;;20.60
4421;BMP180;11824;51.178;13.546;2023-05-14T09:55:03;100384.00;;;20.60
4421;BMP180;11824;51.178;13.546;2023-05-14T09:57:31;100376.00;;;20.70
4421;BMP180;11824;51.178;13.546;2023-05-14T09:59:59;100370.00;;;20.70
4421;BMP180;11824;51.178;13.546;2023-05-14T10:02:29;100373.00;;;20.80
4421;BMP180;11824;51.178;13.546;2023-05-14T10:05:02;100371.00;;;20.90
4421;BMP180;11824;51.178;13.546;2023-05-14T10:07:36;100370.00;;;20.90
4421;BMP180;11824;51.178;13.546;2023-05-14T10:10:07;100361.00;;;21.00
4421;BMP180;11824;51.178;13.546;2023-05-14T10:12:39;100366.00;;;21.10
4421;BMP180;11824;51.178;13.546;2023-05-14T10:15:13;100359.00;;;21.30
4421;BMP180;11824;51.178;13.546;2023-05-14T10:17:48;100357.00;;;21.50
4421;BMP180;11824;51.178;13.546;2023-05-14T10:20:16;100354.00;;;21.70
4421;BMP180;11824;51.178;13.546;2023-05-14T10:22:44;100358.00;;;21.90
4421;BMP180;11824;51.178;13.546;2023-05-14T10:25:12;100352.00;;;22.10
4421;BMP180;11824;51.178;13.546;2023-05-14T10:27:40;100357.00;;;22.30
4421;BMP180;11824;51.178;13.546;2023-05-14T10:30:10;100355.00;;;22.50
4421;BMP180;11824;51.178;13.546;2023-05-14T10:32:38;100351.00;;;22.70
4421;BMP180;11824;51.178;13.546;2023-05-14T10:35:17;100356.00;;;22.80
4421;BMP180;11824;51.178;13.546;2023-05-14T10:37:46;100350.00;;;22.80
4421;BMP180;11824;51.178;13.546;2023-05-14T10:40:16;100338.00;;;22.80
4421;BMP180;11824;51.178;13.546;2023-05-14T10:42:46;100337.00;;;22.90
4421;BMP180;11824;51.178;13.546;2023-05-14T10:45:14;100338.00;;;23.10
4421;BMP180;11824;51.178;13.546;2023-05-14T10:47:44;100332.00;;;23.20
4421;BMP180;11824;51.178;13.546;2023-05-14T10:50:14;100340.00;;;23.30
4421;BMP180;11824;51.178;13.546;2023-05-14T10:52:42;100350.00;;;23.40
4421;BMP180;11824;51.178;13.546;2023-05-14T10:55:13;100343.00;;;23.30
4421;BMP180;11824;51.178;13.546;2023-05-14T10:57:43;100338.00;;;23.30
4421;BMP180;11824;51.178;13.546;2023-05-14T11:00:12;100334.00;;;23.30
4421;BMP180;11824;51.178;13.546;2023-05-14T11:02:41;100323.00;;;23.30
4421;BMP180;11824;51.178;13.546;2023-05-14T11:05:11;100325.00;;;23.40
4421;BMP180;11824;51.178;13.546;2023-05-14T11:07:40;100335.00;;;23.40
4421;BMP180;11824;51.178;13.546;2023-05-14T11:10:10;100325.00;;;23.50
4421;BMP180;11824;51.178;13.546;2023-05-14T11:12:41;100324.00;;;23.40
4421;BMP180;11824;51.178;13.546;2023-05-14T11:15:10;100320.00;;;23.20
4421;BMP180;11824;51.178;13.546;2023-05-14T11:17:38;100317.00;;;23.00
4421;BMP180;11824;51.178;13.546;2023-05-14T11:20:07;100317.00;;;22.70
4421;BMP180;11824;51.178;13.546;2023-05-14T11:22:35;100309.00;;;22.50
4421;BMP180;11824;51.178;13.546;2023-05-14T11:25:02;100312.00;;;22.30
4421;BMP180;11824;51.178;13.546;2023-05-14T11:27:33;100314.00;;;22.10
4421;BMP180;11824;51.178;13.546;2023-05-14T11:30:01;100320.00;;;21.90
4421;BMP180;11824;51.178;13.546;2023-05-14T11:32:31;100315.00;;;21.60
4421;BMP180;11824;51.178;13.546;2023-05-14T11:34:59;100317.00;;;21.40
4421;BMP180;11824;51.178;13.546;2023-05-14T11:37:26;100302.00;;;21.20
4421;BMP180;11824;51.178;13.546;2023-05-14T11:39:58;100311.00;;;21.10
4421;BMP180;11824;51.178;13.546;2023-05-14T11:42:26;100309.00;;;20.90
4421;BMP180;11824;51.178;13.546;2023-05-14T11:44:54;100305.00;;;20.70
4421;BMP180;11824;51.178;13.546;2023-05-14T11:47:22;100303.00;;;20.60
4421;BMP180;11824;51.178;13.546;2023-05-14T11:49:49;100305.00;;;20.50
4421;BMP180;11824;51.178;13.546;2023-05-14T11:52:17;100306.00;;;20.40
4421;BMP180;11824;51.178;13.546;2023-05-14T11:54:45;100302.00;;;20.20
4421;BMP180;11824;51.178;13.546;2023-05-14T11:57:14;100294.00;;;20.10
4421;BMP180;11824;51.178;13.546;2023-05-14T11:59:42;100297.00;;;20.00
4421;BMP180;11824;51.178;13.546;2023-05-14T12:02:12;100297.00;;;19.90
4421;BMP180;11824;51.178;13.546;2023-05-14T12:04:40;100292.00;;;19.80
4421;BMP180;11824;51.178;13.546;2023-05-14T12:07:10;100291.00;;;19.80
4421;BMP180;11824;51.178;13.546;2023-05-14T12:09:39;100293.00;;;19.70
4421;BMP180;11824;51.178;13.546;2023-05-14T12:12:09;100281.00;;;19.70
4421;BMP180;11824;51.178;13.546;2023-05-14T12:14:37;100275.00;;;19.80
4421;BMP180;11824;51.178;13.546;2023-05-14T12:17:12;100275.00;;;19.80
4421;BMP180;11824;51.178;13.546;2023-05-14T12:19:40;100271.00;;;19.90
4421;BMP180;11824;51.178;13.546;2023-05-14T12:22:08;100276.00;;;20.00
4421;BMP180;11824;51.178;13.546;2023-05-14T12:24:36;100265.00;;;20.00
4421;BMP180;11824;51.178;13.546;2023-05-14T12:27:05;100268.00;;;20.10
4421;BMP180;11824;51.178;13.546;2023-05-14T12:29:35;100261.00;;;20.20
4421;BMP180;11824;51.178;13.546;2023-05-14T12:32:07;100256.00;;;20.30
4421;BMP180;11824;51.178;13.546;2023-05-14T12:34:36;100258.00;;;20.40
4421;BMP180;11824;51.178;13.546;2023-05-14T12:37:04;100260.00;;;20.50
4421;BMP180;11824;51.178;13.546;2023-05-14T12:39:32;100252.00;;;20.60
4421;BMP180;11824;51.178;13.546;2023-05-14T12:42:00;100251.00;;;20.60
4421;BMP180;11824;51.178;13.546;2023-05-14T12:44:28;100259.00;;;20.70
4421;BMP180;11824;51.178;13.546;2023-05-14T12:46:55;100250.00;;;20.80
4421;BMP180;11824;51.178;13.546;2023-05-14T12:49:23;100242.00;;;20.90
4421;BMP180;11824;51.178;13.546;2023-05-14T12:51:52;100234.00;;;21.00
4421;BMP180;11824;51.178;13.546;2023-05-14T12:54:39;100225.00;;;21.10
4421;BMP180;11824;51.178;13.546;2023-05-14T12:57:09;100221.00;;;21.30
4421;BMP180;11824;51.178;13.546;2023-05-14T12:59:36;100219.00;;;21.40
4421;BMP180;11824;51.178;13.546;2023-05-14T13:02:04;100223.00;;;21.50
4421;BMP180;11824;51.178;13.546;2023-05-14T13:04:31;100214.00;;;21.60
4421;BMP180;11824;51.178;13.546;2023-05-14T13:07:00;100220.00;;;21.70
4421;BMP180;11824;51.178;13.546;2023-05-14T13:09:27;100221.00;;;21.80
4421;BMP180;11824;51.178;13.546;2023-05-14T13:11:54;100211.00;;;21.90
4421;BMP180;11824;51.178;13.546;2023-05-14T13:14:22;100220.00;;;21.90
4421;BMP180;11824;51.178;13.546;2023-05-14T13:16:49;100221.00;;;21.90
4421;BMP180;11824;51.178;13.546;2023-05-14T13:19:16;100222.00;;;21.90
4421;BMP180;11824;51.178;13.546;2023-05-14T13:21:44;100217.00;;;21.80
4421;BMP180;11824;51.178;13.546;2023-05-14T13:24:12;100212.00;;;21.80
4421;BMP180;11824;51.178;13.546;2023-05-14T13:26:39;100209.00;;;21.70
4421;BMP180;11824;51.178;13.546;2023-05-14T13:29:06;100212.00;;;21.70
4421;BMP180;11824;51.178;13.546;2023-05-14T13:31:34;100212.00;;;21.70
4421;BMP180;11824;51.178;13.546;2023-05-14T13:34:01;100202.00;;;21.60
4421;BMP180;11824;51.178;13.546;2023-05-14T13:36:29;100211.00;;;21.60
4421;BMP180;11824;51.178;13.546;2023-05-14T13:38:57;100199.00;;;21.50
4421;BMP180;11824;51.178;13.546;2023-05-14T13:41:26;100206.00;;;21.40
4421;BMP180;11824;51.178;13.546;2023-05-14T13:43:53;100205.00;;;21.30
4421;BMP180;11824;51.178;13.546;2023-05-14T13:46:20;100192.00;;;21.30
4421;BMP180;11824;51.178;13.546;2023-05-14T13:48:48;100205.00;;;21.20
4421;BMP180;11824;51.178;13.546;2023-05-14T13:51:15;100193.00;;;21.20
4421;BMP180;11824;51.178;13.546;2023-05-14T13:53:42;100199.00;;;21.10
4421;BMP180;11824;51.178;13.546;2023-05-14T13:56:10;100202.00;;;21.00
4421;BMP180;11824;51.178;13.546;2023-05-14T13:58:38;100201.00;;;21.00
4421;BMP180;11824;51.178;13.546;2023-05-14T14:01:05;100189.00;;;21.00
4421;BMP180;11824;51.178;13.546;2023-05-14T14:03:33;100187.00;;;20.90